Time;durP1;ratioP1;P1;durP2;ratioP2;P2;SDS_P1;SDS_P2;PMS_P1;PMS_P2;Temp;Humidity;BMP_temperature;BMP_pressure;BME280_temperature;BME280_humidity;BME280_pressure;Samples;Min_cycle;Max_cycle;Signal;HPM_P1;HPM_P2
2022/09/02 00:04:08;;;;;;;5.03;4.63;;;18.00;99.30;;;;;;10434812;28;20310;-82
2022/09/02 00:09:13;;;;;;;5.60;5.10;;;18.00;99.10;;;;;;10424208;28;20701;-82
2022/09/02 00:14:19;;;;;;;4.67;4.47;;;17.90;99.00;;;;;;10419607;28;20190;-81
2022/09/02 00:19:24;;;;;;;5.10;4.70;;;17.80;99.00;;;;;;10445096;28;20213;-82
2022/09/02 00:24:26;;;;;;;5.50;5.10;;;17.70;99.20;;;;;;10460682;28;20216;-81
2022/09/02 00:29:30;;;;;;;6.97;4.63;;;17.70;98.80;;;;;;10473545;28;20236;-81
2022/09/02 00:34:33;;;;;;;5.37;5.07;;;17.60;98.70;;;;;;10459203;28;20208;-81
2022/09/02 00:39:35;;;;;;;4.90;4.60;;;17.60;99.60;;;;;;10456501;28;20340;-80
2022/09/02 00:44:38;;;;;;;4.80;4.50;;;17.50;99.60;;;;;;10447631;28;20210;-81
2022/09/02 00:49:44;;;;;;;5.00;4.60;;;17.50;99.90;;;;;;10451174;28;20245;-82
2022/09/02 00:54:48;;;;;;;4.60;4.30;;;17.50;99.90;;;;;;10449441;28;20276;-81
2022/09/02 00:59:58;;;;;;;4.13;3.83;;;17.50;99.90;;;;;;10449990;28;20240;-81
2022/09/02 01:05:02;;;;;;;5.40;5.00;;;17.50;99.00;;;;;;10442696;28;20236;-81
2022/09/02 01:10:07;;;;;;;4.37;4.17;;;17.50;99.70;;;;;;10444490;28;20563;-82
2022/09/02 01:15:13;;;;;;;4.77;4.47;;;17.40;99.10;;;;;;10436705;28;20217;-82
2022/09/02 01:20:17;;;;;;;5.07;4.77;;;17.40;99.30;;;;;;10459908;28;20225;-82
2022/09/02 01:25:23;;;;;;;4.80;4.60;;;17.30;99.30;;;;;;10450747;28;20217;-82
2022/09/02 01:30:26;;;;;;;5.00;4.70;;;17.30;99.90;;;;;;10443449;28;20217;-82
2022/09/02 01:35:30;;;;;;;5.50;5.10;;;17.20;99.80;;;;;;10474240;28;20185;-82
2022/09/02 01:40:34;;;;;;;5.70;5.37;;;17.20;99.90;;;;;;10464804;28;20221;-82
2022/09/02 01:45:38;;;;;;;5.40;5.00;;;17.20;99.10;;;;;;10466064;28;20217;-82
2022/09/02 01:50:45;;;;;;;4.83;4.50;;;17.10;98.90;;;;;;10449070;28;20278;-82
2022/09/02 01:55:49;;;;;;;5.60;5.13;;;17.00;98.90;;;;;;10461227;28;20197;-84
2022/09/02 02:00:51;;;;;;;5.13;4.73;;;16.90;99.60;;;;;;10465770;28;20217;-83
2022/09/02 02:05:54;;;;;;;5.47;5.10;;;16.90;99.60;;;;;;10447481;28;20251;-84
2022/09/02 02:10:57;;;;;;;5.00;4.70;;;16.90;99.10;;;;;;10445009;28;20221;-80
2022/09/02 02:16:00;;;;;;;5.50;5.10;;;16.90;99.70;;;;;;10457724;28;20181;-81
2022/09/02 02:21:02;;;;;;;5.40;5.00;;;16.80;99.90;;;;;;10463751;28;20226;-84
2022/09/02 02:26:06;;;;;;;5.20;4.80;;;16.80;99.60;;;;;;10466742;28;20239;-84
2022/09/02 02:31:09;;;;;;;5.20;4.80;;;16.80;99.90;;;;;;10461353;28;20252;-84
2022/09/02 02:36:12;;;;;;;6.03;5.40;;;16.80;99.90;;;;;;10461224;28;20204;-83
2022/09/02 02:41:15;;;;;;;4.70;4.40;;;16.90;99.90;;;;;;10462735;28;20366;-84
2022/09/02 02:46:18;;;;;;;5.40;5.00;;;16.90;99.90;;;;;;10463407;28;20299;-84
2022/09/02 02:51:20;;;;;;;4.43;4.23;;;16.90;99.90;;;;;;10467433;28;20255;-82
2022/09/02 02:56:27;;;;;;;5.50;4.73;;;16.90;98.90;;;;;;10474403;28;20257;-85
2022/09/02 03:01:30;;;;;;;5.23;4.53;;;16.80;99.20;;;;;;10446498;28;20688;-84
2022/09/02 03:06:34;;;;;;;4.67;4.37;;;16.80;99.50;;;;;;10459384;28;20244;-84
2022/09/02 03:11:39;;;;;;;5.60;5.20;;;16.80;99.70;;;;;;10463056;28;20238;-84
2022/09/02 03:16:43;;;;;;;5.30;4.90;;;16.70;99.90;;;;;;10445875;28;20740;-84
2022/09/02 03:21:45;;;;;;;4.57;4.37;;;16.70;99.50;;;;;;10459781;28;20247;-82
2022/09/02 03:26:49;;;;;;;5.07;4.60;;;16.70;99.10;;;;;;10459657;28;20193;-79
2022/09/02 03:31:52;;;;;;;6.10;5.50;;;16.60;99.80;;;;;;10440846;28;20779;-79
2022/09/02 03:36:54;;;;;;;6.20;5.80;;;16.60;98.80;;;;;;10456766;28;20243;-81
2022/09/02 03:41:58;;;;;;;4.73;4.53;;;16.50;99.40;;;;;;10458769;28;20685;-81
2022/09/02 03:47:02;;;;;;;4.80;4.60;;;16.50;99.20;;;;;;10460260;28;20189;-81
2022/09/02 03:52:05;;;;;;;4.63;4.07;;;16.40;99.90;;;;;;10464979;28;20225;-81
2022/09/02 03:57:08;;;;;;;5.20;5.00;;;16.40;99.90;;;;;;10464438;28;20205;-81
2022/09/02 04:02:12;;;;;;;5.30;4.90;;;16.40;99.50;;;;;;10464859;28;20707;-81
2022/09/02 04:07:14;;;;;;;5.83;5.53;;;16.40;99.90;;;;;;10465646;28;20213;-82
2022/09/02 04:12:18;;;;;;;4.37;4.00;;;16.40;99.50;;;;;;10463112;28;20628;-79
2022/09/02 04:23:37;;;;;;;5.60;5.30;;;16.20;99.90;;;;;;10464955;28;20622;-82
2022/09/02 04:28:41;;;;;;;3.63;3.43;;;16.20;99.10;;;;;;10465850;28;20209;-83
2022/09/02 04:33:44;;;;;;;6.30;5.90;;;16.30;99.90;;;;;;10465019;28;20192;-80
2022/09/02 04:38:49;;;;;;;4.30;4.00;;;16.40;99.90;;;;;;10471275;28;20299;-81
2022/09/02 04:43:55;;;;;;;5.60;5.30;;;15.70;99.90;;;;;;10462463;28;20221;-82
2022/09/02 04:49:00;;;;;;;4.80;4.50;;;16.10;99.90;;;;;;10446762;28;20228;-81
2022/09/02 04:54:02;;;;;;;5.50;5.27;;;16.10;99.90;;;;;;10462191;28;20201;-81
2022/09/02 04:59:06;;;;;;;5.20;4.87;;;16.10;99.90;;;;;;10457156;28;20217;-82
2022/09/02 05:04:11;;;;;;;5.63;5.20;;;16.10;99.90;;;;;;10468529;28;20280;-83
2022/09/02 05:09:20;;;;;;;4.97;4.67;;;16.10;99.90;;;;;;10468414;28;20297;-83
2022/09/02 05:14:37;;;;;;;5.73;5.43;;;16.10;99.90;;;;;;10451569;28;20246;-81
2022/09/02 05:19:42;;;;;;;4.83;4.43;;;16.20;99.90;;;;;;10474787;28;20213;-80
2022/09/02 05:24:45;;;;;;;6.50;6.00;;;16.20;99.90;;;;;;10485288;28;20228;-80
2022/09/02 05:29:50;;;;;;;6.10;5.50;;;16.20;99.90;;;;;;10458906;28;20214;-79
2022/09/02 05:34:55;;;;;;;5.50;5.10;;;16.20;99.90;;;;;;10459608;28;20719;-79
2022/09/02 05:39:58;;;;;;;5.33;5.03;;;16.20;99.90;;;;;;10456947;28;20232;-78
2022/09/02 05:45:02;;;;;;;6.13;5.53;;;16.30;99.90;;;;;;10439708;28;20229;-78
2022/09/02 05:50:05;;;;;;;7.73;6.70;;;16.30;99.90;;;;;;10458226;28;20217;-80
2022/09/02 05:55:10;;;;;;;7.00;6.40;;;16.40;99.90;;;;;;10455117;28;20285;-80
2022/09/02 06:00:17;;;;;;;6.03;5.63;;;16.40;99.90;;;;;;10443302;28;20239;-79
2022/09/02 06:05:28;;;;;;;5.90;5.60;;;16.40;99.90;;;;;;10429949;28;20244;-79
2022/09/02 06:10:46;;;;;;;9.53;7.00;;;16.50;99.90;;;;;;10455568;28;20219;-80
2022/09/02 06:15:55;;;;;;;8.00;5.70;;;16.50;99.90;;;;;;10466729;28;20201;-79
2022/09/02 06:21:02;;;;;;;7.30;6.80;;;16.60;99.90;;;;;;10450773;28;20225;-82
2022/09/02 06:26:13;;;;;;;7.33;6.63;;;16.60;99.90;;;;;;10447169;28;20308;-80
2022/09/02 06:31:19;;;;;;;8.17;7.40;;;16.70;99.90;;;;;;10456202;28;20676;-80
2022/09/02 06:36:23;;;;;;;8.17;7.37;;;16.70;99.90;;;;;;10444844;28;20224;-82
2022/09/02 06:41:28;;;;;;;9.83;8.70;;;16.80;99.90;;;;;;10466022;28;20262;-82
2022/09/02 06:46:37;;;;;;;12.50;10.33;;;16.80;99.90;;;;;;10446404;28;20288;-81
2022/09/02 06:51:43;;;;;;;8.67;8.10;;;16.90;99.90;;;;;;10462813;28;20229;-82
2022/09/02 06:56:47;;;;;;;8.10;7.60;;;17.00;99.90;;;;;;10433079;28;20185;-82
2022/09/02 07:01:52;;;;;;;8.47;7.50;;;17.10;99.90;;;;;;10423646;28;20219;-81
2022/09/02 07:06:57;;;;;;;7.53;7.07;;;17.20;99.90;;;;;;10443915;28;20221;-81
2022/09/02 07:12:04;;;;;;;6.90;6.40;;;17.30;99.90;;;;;;10445438;28;20307;-82
2022/09/02 07:17:16;;;;;;;5.90;5.60;;;17.50;99.90;;;;;;10454548;28;20189;-80
2022/09/02 07:22:19;;;;;;;6.77;6.27;;;17.60;99.90;;;;;;10426954;28;20260;-80
2022/09/02 07:27:22;;;;;;;6.60;6.10;;;17.80;99.90;;;;;;10443607;28;20228;-82
2022/09/02 07:32:27;;;;;;;5.40;5.10;;;17.90;99.90;;;;;;10441847;28;20213;-80
2022/09/02 07:37:29;;;;;;;6.23;5.93;;;18.00;99.90;;;;;;10417753;28;20193;-80
2022/09/02 07:42:32;;;;;;;5.57;5.27;;;18.20;99.90;;;;;;10440257;28;20312;-80
2022/09/02 07:47:37;;;;;;;5.20;4.83;;;18.40;98.60;;;;;;10438910;28;20198;-79
2022/09/02 07:52:39;;;;;;;6.60;6.30;;;18.50;99.90;;;;;;10437244;28;20213;-80
2022/09/02 07:57:42;;;;;;;5.23;4.93;;;18.60;99.20;;;;;;10411838;28;20201;-80
2022/09/02 08:02:47;;;;;;;5.80;5.50;;;18.80;98.90;;;;;;10433294;28;20617;-80
2022/09/02 08:07:55;;;;;;;5.77;5.27;;;18.90;98.90;;;;;;10412957;28;20217;-80
2022/09/02 08:12:59;;;;;;;5.60;5.30;;;19.00;99.90;;;;;;10439004;28;20641;-80
2022/09/02 08:18:03;;;;;;;6.10;5.27;;;19.10;99.90;;;;;;10437473;28;20285;-82
2022/09/02 08:23:07;;;;;;;5.60;5.33;;;19.30;95.60;;;;;;10437617;28;20209;-80
2022/09/02 08:28:09;;;;;;;5.70;5.40;;;19.40;95.30;;;;;;10439222;28;20589;-78
2022/09/02 08:33:13;;;;;;;6.67;6.23;;;19.50;94.80;;;;;;10437786;28;20185;-80
2022/09/02 08:38:15;;;;;;;5.67;5.37;;;19.60;99.10;;;;;;10440190;28;20288;-80
2022/09/02 08:43:29;;;;;;;6.27;5.93;;;19.60;99.30;;;;;;10440048;28;20235;-79
2022/09/02 08:48:39;;;;;;;5.83;5.53;;;19.90;99.90;;;;;;10437608;28;20709;-80
2022/09/02 08:53:52;;;;;;;4.13;3.93;;;19.90;98.20;;;;;;10449357;28;20193;-80
2022/09/02 08:58:55;;;;;;;4.93;4.60;;;20.10;97.50;;;;;;10439119;28;20237;-80
2022/09/02 09:04:17;;;;;;;4.60;4.23;;;20.20;97.30;;;;;;10443589;28;20306;-80
2022/09/02 09:09:27;;;;;;;5.40;5.20;;;20.40;96.80;;;;;;10439509;28;20220;-80
2022/09/02 09:14:33;;;;;;;5.73;5.40;;;20.40;97.30;;;;;;10449441;28;20189;-83
2022/09/02 09:19:52;;;;;;;5.67;5.27;;;20.50;96.60;;;;;;10448687;28;20217;-82
2022/09/02 09:24:57;;;;;;;5.10;4.77;;;20.50;97.30;;;;;;10447448;28;20228;-80
2022/09/02 09:30:00;;;;;;;3.73;3.53;;;20.70;97.60;;;;;;10441033;28;20236;-81
2022/09/02 09:35:06;;;;;;;5.23;4.87;;;20.80;89.90;;;;;;10441741;28;20193;-80
2022/09/02 09:40:29;;;;;;;4.50;4.30;;;20.90;90.00;;;;;;10446410;28;20221;-80
2022/09/02 09:45:33;;;;;;;6.53;6.00;;;21.20;86.70;;;;;;10449472;28;20643;-80
2022/09/02 09:50:36;;;;;;;6.43;5.93;;;21.40;85.40;;;;;;10438821;28;20646;-81
2022/09/02 09:55:51;;;;;;;4.23;4.00;;;21.70;83.30;;;;;;10441869;28;20197;-80
2022/09/02 10:00:55;;;;;;;5.10;4.90;;;22.00;83.50;;;;;;10439514;28;20209;-80
2022/09/02 10:06:16;;;;;;;5.07;4.87;;;22.30;83.10;;;;;;10440024;28;20225;-80
2022/09/02 10:11:22;;;;;;;4.80;4.43;;;22.70;76.80;;;;;;10440254;28;20218;-80
2022/09/02 10:16:46;;;;;;;2.37;2.27;;;22.70;75.60;;;;;;10423526;28;20254;-80
2022/09/02 10:22:23;;;;;;;4.90;4.70;;;22.50;77.00;;;;;;10452857;28;20218;-80
2022/09/02 10:27:35;;;;;;;4.83;4.50;;;22.40;74.60;;;;;;10429390;28;20228;-80
2022/09/02 10:32:53;;;;;;;4.00;3.80;;;22.30;73.30;;;;;;10441570;28;20212;-80
2022/09/02 10:38:25;;;;;;;4.80;4.50;;;22.10;74.20;;;;;;10458429;28;20193;-80
2022/09/02 10:43:43;;;;;;;5.83;5.63;;;22.00;73.10;;;;;;10458779;28;20198;-80
2022/09/02 10:48:56;;;;;;;5.07;4.87;;;21.90;74.50;;;;;;10458737;28;20216;-80
2022/09/02 10:54:12;;;;;;;4.73;4.43;;;21.90;73.40;;;;;;10461680;28;20190;-80
2022/09/02 10:59:19;;;;;;;3.47;3.27;;;21.90;71.90;;;;;;10460234;28;20213;-80
2022/09/02 11:04:30;;;;;;;4.93;4.70;;;21.90;73.60;;;;;;10468493;28;20217;-80
2022/09/02 11:09:38;;;;;;;3.67;3.57;;;21.90;70.80;;;;;;10459872;28;20720;-80
2022/09/02 11:14:48;;;;;;;3.77;3.63;;;21.90;70.80;;;;;;10465361;28;20265;-80
2022/09/02 11:19:59;;;;;;;5.30;5.00;;;21.80;72.40;;;;;;10459519;28;20218;-80
2022/09/02 11:25:07;;;;;;;4.90;4.70;;;21.80;72.50;;;;;;10458653;28;20225;-80
2022/09/02 11:30:14;;;;;;;5.17;4.97;;;21.80;71.60;;;;;;10459609;28;20216;-80
2022/09/02 11:35:21;;;;;;;5.20;4.90;;;21.90;72.30;;;;;;10460304;28;20285;-80
2022/09/02 11:40:29;;;;;;;5.10;4.90;;;21.90;71.40;;;;;;10437835;28;20217;-81
2022/09/02 11:46:00;;;;;;;5.40;5.20;;;21.90;70.80;;;;;;10455543;28;20304;-80
2022/09/02 11:51:32;;;;;;;5.07;4.80;;;22.10;70.20;;;;;;10453253;28;20248;-78
2022/09/02 11:56:41;;;;;;;5.70;5.40;;;22.20;68.50;;;;;;10455259;28;20193;-80
2022/09/02 12:01:49;;;;;;;4.90;4.70;;;22.30;71.00;;;;;;10454851;28;20482;-81
2022/09/02 12:07:32;;;;;;;5.40;5.03;;;22.40;71.20;;;;;;10456722;28;20743;-82
2022/09/02 12:13:06;;;;;;;2.93;2.83;;;22.50;68.70;;;;;;10466146;28;20303;-81
2022/09/02 12:18:26;;;;;;;5.13;4.93;;;22.50;68.80;;;;;;10461718;28;20580;-81
2022/09/02 12:24:05;;;;;;;3.97;3.87;;;22.50;69.80;;;;;;10469209;28;20235;-82
2022/09/02 12:29:30;;;;;;;5.20;5.00;;;22.40;72.20;;;;;;10429346;28;20216;-82
2022/09/02 12:34:55;;;;;;;5.13;4.90;;;22.40;69.30;;;;;;10467993;28;20572;-83
2022/09/02 12:40:02;;;;;;;5.00;4.70;;;22.40;70.70;;;;;;10466539;28;20213;-83
2022/09/02 12:45:13;;;;;;;4.57;4.37;;;22.30;71.20;;;;;;10469233;28;20207;-83
2022/09/02 12:50:25;;;;;;;3.20;3.10;;;22.30;71.80;;;;;;10453507;28;20233;-82
2022/09/02 12:55:31;;;;;;;5.33;5.13;;;22.40;69.50;;;;;;10442251;28;20213;-82
2022/09/02 13:00:51;;;;;;;4.93;4.53;;;22.50;65.50;;;;;;10434013;28;20217;-81
2022/09/02 13:05:58;;;;;;;4.67;4.50;;;22.40;67.40;;;;;;10466381;28;20223;-81
2022/09/02 13:11:32;;;;;;;4.80;4.50;;;22.40;69.90;;;;;;10464577;28;20228;-81
2022/09/02 13:16:45;;;;;;;4.93;4.73;;;22.50;70.40;;;;;;10468275;28;20226;-81
2022/09/02 13:22:28;;;;;;;4.83;4.63;;;22.50;72.00;;;;;;10467016;28;20221;-82
2022/09/02 13:28:04;;;;;;;4.73;4.50;;;22.50;72.00;;;;;;10460789;28;20234;-83
2022/09/02 13:33:10;;;;;;;5.47;5.17;;;22.50;68.30;;;;;;10454307;28;20246;-83
2022/09/02 13:38:13;;;;;;;5.27;5.00;;;22.70;70.20;;;;;;10452349;28;20205;-83
2022/09/02 13:43:19;;;;;;;5.00;4.70;;;22.70;71.20;;;;;;10465010;28;20212;-82
2022/09/02 13:48:25;;;;;;;4.90;4.60;;;22.70;70.10;;;;;;10456279;28;20248;-80
2022/09/02 13:53:32;;;;;;;4.47;4.27;;;22.60;72.90;;;;;;10454739;28;20256;-83
2022/09/02 13:58:38;;;;;;;4.90;4.70;;;22.70;71.20;;;;;;10465382;28;20272;-83
2022/09/02 14:03:47;;;;;;;4.50;4.30;;;22.70;71.50;;;;;;10443548;28;20197;-82
2022/09/02 14:08:51;;;;;;;4.60;4.40;;;22.80;70.60;;;;;;10447485;28;20217;-80
2022/09/02 14:13:54;;;;;;;5.60;5.10;;;22.80;71.40;;;;;;10453079;28;20193;-81
2022/09/02 14:19:06;;;;;;;4.70;4.40;;;22.70;70.30;;;;;;10449913;28;20205;-82
2022/09/02 14:24:12;;;;;;;4.73;4.43;;;22.90;71.40;;;;;;10444086;28;20305;-82
2022/09/02 14:29:17;;;;;;;4.90;4.70;;;22.90;71.60;;;;;;10443600;28;20239;-82
2022/09/02 14:34:34;;;;;;;4.90;4.60;;;22.90;73.30;;;;;;10461094;28;20278;-81
2022/09/02 14:39:51;;;;;;;5.20;4.90;;;22.90;70.30;;;;;;10458744;28;20282;-81
2022/09/02 14:44:54;;;;;;;5.40;5.10;;;22.90;72.10;;;;;;10451858;28;20270;-81
2022/09/02 14:49:57;;;;;;;4.03;3.73;;;23.00;72.70;;;;;;10458506;28;20229;-79
2022/09/02 14:54:59;;;;;;;4.20;4.00;;;23.10;70.50;;;;;;10461247;28;20288;-79
2022/09/02 15:00:06;;;;;;;4.60;4.30;;;23.20;70.90;;;;;;10451306;28;20213;-82
2022/09/02 15:05:13;;;;;;;4.60;4.40;;;23.20;70.70;;;;;;10438438;28;20213;-78
2022/09/02 15:10:15;;;;;;;4.10;3.90;;;23.20;69.90;;;;;;10436586;28;20244;-81
2022/09/02 15:15:17;;;;;;;3.83;3.63;;;23.20;69.40;;;;;;10451309;28;20196;-82
2022/09/02 15:20:21;;;;;;;4.67;4.47;;;23.20;71.10;;;;;;10456393;28;20221;-81
2022/09/02 15:25:24;;;;;;;4.50;4.40;;;23.20;70.40;;;;;;10456089;28;20221;-81
2022/09/02 15:30:26;;;;;;;4.50;4.30;;;23.20;69.90;;;;;;10458503;28;20221;-80
2022/09/02 15:35:32;;;;;;;4.20;4.00;;;23.10;70.10;;;;;;10459771;28;20250;-80
2022/09/02 15:40:34;;;;;;;3.37;3.17;;;23.10;71.60;;;;;;10459366;28;20217;-80
2022/09/02 15:45:39;;;;;;;5.40;4.93;;;23.10;73.10;;;;;;10431994;28;20209;-80
2022/09/02 15:50:43;;;;;;;4.20;3.90;;;23.00;73.80;;;;;;10474086;28;20324;-80
2022/09/02 15:55:45;;;;;;;4.07;3.87;;;23.00;71.10;;;;;;10467401;28;20201;-80
2022/09/02 16:00:47;;;;;;;3.40;3.30;;;23.00;71.50;;;;;;10462760;28;20221;-80
2022/09/02 16:05:50;;;;;;;4.37;4.17;;;22.90;73.20;;;;;;10464300;28;20684;-80
2022/09/02 16:10:52;;;;;;;3.43;3.23;;;22.80;73.40;;;;;;10465299;28;20317;-80
2022/09/02 16:16:00;;;;;;;3.77;3.57;;;22.80;69.90;;;;;;10446926;28;20226;-80
2022/09/02 16:21:04;;;;;;;5.30;3.63;;;22.80;69.20;;;;;;10462881;28;20214;-79
2022/09/02 16:26:08;;;;;;;3.50;3.20;;;22.80;70.40;;;;;;10464541;28;20316;-80
2022/09/02 16:31:12;;;;;;;6.27;4.07;;;22.90;69.80;;;;;;10465555;28;20225;-80
2022/09/02 16:36:15;;;;;;;3.53;3.43;;;22.90;70.50;;;;;;10464930;28;20265;-80
2022/09/02 16:41:26;;;;;;;4.40;4.10;;;22.80;75.80;;;;;;10465822;28;20510;-80
2022/09/02 16:46:30;;;;;;;3.93;3.73;;;22.80;76.60;;;;;;10473905;28;20532;-80
2022/09/02 16:51:33;;;;;;;3.30;3.20;;;22.70;75.00;;;;;;10462412;28;20697;-80
2022/09/02 16:56:36;;;;;;;3.63;3.37;;;22.70;75.40;;;;;;10462362;28;20285;-80
2022/09/02 17:01:39;;;;;;;6.37;5.97;;;22.60;78.10;;;;;;10464971;28;20218;-80
2022/09/02 17:06:43;;;;;;;5.00;4.70;;;22.60;80.00;;;;;;10464121;28;20221;-80
2022/09/02 17:11:45;;;;;;;7.63;4.23;;;22.60;82.90;;;;;;10465581;28;20244;-80
2022/09/02 17:16:49;;;;;;;5.30;4.90;;;22.60;81.00;;;;;;10465077;28;20201;-80
2022/09/02 17:21:54;;;;;;;4.00;3.70;;;22.50;78.60;;;;;;10462756;28;20263;-80
2022/09/02 17:26:57;;;;;;;3.60;3.40;;;22.40;79.30;;;;;;10456679;28;20283;-79
2022/09/02 17:32:00;;;;;;;4.00;3.80;;;22.40;79.40;;;;;;10457601;28;20263;-81
2022/09/02 17:37:03;;;;;;;4.00;3.70;;;22.30;80.10;;;;;;10475182;28;20389;-80
2022/09/02 17:42:06;;;;;;;4.40;3.97;;;22.20;80.00;;;;;;10453932;28;20295;-80
2022/09/02 17:47:11;;;;;;;4.00;3.80;;;22.10;82.00;;;;;;10454899;28;20636;-80
2022/09/02 17:52:17;;;;;;;4.40;3.83;;;22.00;82.40;;;;;;10477563;28;20248;-80
2022/09/02 17:57:33;;;;;;;3.40;3.20;;;21.90;81.10;;;;;;10459434;28;20197;-80
2022/09/02 18:02:53;;;;;;;4.13;3.80;;;21.90;81.30;;;;;;10445915;28;20266;-79
2022/09/02 18:08:07;;;;;;;3.90;3.60;;;21.80;80.80;;;;;;10453341;28;20307;-80
2022/09/02 18:13:12;;;;;;;6.50;3.40;;;21.60;81.60;;;;;;10457378;28;20201;-79
2022/09/02 18:18:16;;;;;;;2.60;2.40;;;21.60;81.90;;;;;;10455669;28;20228;-80
2022/09/02 18:23:37;;;;;;;3.77;3.57;;;21.50;83.20;;;;;;10466925;28;20677;-80
2022/09/02 18:28:49;;;;;;;4.67;4.27;;;21.40;81.70;;;;;;10474552;28;20299;-81
2022/09/02 18:34:28;;;;;;;32.20;29.30;;;21.30;83.50;;;;;;10456472;28;20284;-80
2022/09/02 18:39:46;;;;;;;3.30;3.10;;;21.30;84.10;;;;;;10457398;28;20215;-81
2022/09/02 18:44:59;;;;;;;4.07;3.77;;;21.30;85.60;;;;;;10450905;28;20287;-80
2022/09/02 18:50:05;;;;;;;4.10;3.80;;;21.20;83.00;;;;;;10455626;28;20779;-81
2022/09/02 18:55:11;;;;;;;3.83;3.53;;;21.10;83.90;;;;;;10424015;28;20669;-81
2022/09/02 19:00:14;;;;;;;3.43;3.23;;;21.10;85.90;;;;;;10453583;28;20628;-81
2022/09/02 19:05:20;;;;;;;3.97;3.70;;;21.00;86.60;;;;;;10443200;28;20217;-82
2022/09/02 19:10:23;;;;;;;3.93;3.73;;;21.00;85.70;;;;;;10445284;28;20217;-81
2022/09/02 19:15:25;;;;;;;4.10;3.73;;;20.90;83.60;;;;;;10451911;28;20661;-81
2022/09/02 19:20:27;;;;;;;3.00;2.90;;;20.90;84.50;;;;;;10452640;28;20217;-81
2022/09/02 19:25:32;;;;;;;3.60;3.40;;;20.90;83.00;;;;;;10452847;28;20232;-80
2022/09/02 19:30:36;;;;;;;3.37;3.17;;;20.90;82.30;;;;;;10454239;28;20225;-81
2022/09/02 19:35:41;;;;;;;3.80;3.50;;;20.90;81.90;;;;;;10453750;28;20637;-82
2022/09/02 19:40:48;;;;;;;6.90;4.00;;;20.90;82.70;;;;;;10455570;28;20263;-81
2022/09/02 19:45:50;;;;;;;3.97;3.67;;;20.90;79.10;;;;;;10453373;28;20219;-81
2022/09/02 19:50:52;;;;;;;3.30;3.10;;;20.90;80.40;;;;;;10455296;28;20324;-81
2022/09/02 19:55:56;;;;;;;3.30;3.10;;;20.80;80.20;;;;;;10466281;28;20201;-80
2022/09/02 20:00:58;;;;;;;3.20;2.97;;;20.80;79.70;;;;;;10460946;28;20283;-81
2022/09/02 20:06:00;;;;;;;3.17;2.90;;;20.90;77.70;;;;;;10453611;28;20290;-82
2022/09/02 20:11:05;;;;;;;3.43;3.23;;;20.80;79.10;;;;;;10450279;28;20225;-81
2022/09/02 20:16:17;;;;;;;4.03;3.83;;;20.80;78.20;;;;;;10449138;28;20197;-81
2022/09/02 20:21:22;;;;;;;3.57;3.33;;;20.70;79.70;;;;;;10448229;28;20217;-81
2022/09/02 20:26:35;;;;;;;3.47;3.17;;;20.70;78.50;;;;;;10453004;28;20221;-80
2022/09/02 20:31:51;;;;;;;4.47;4.07;;;20.70;78.00;;;;;;10466941;28;20217;-80
2022/09/02 20:37:01;;;;;;;3.20;3.00;;;20.60;77.80;;;;;;10435808;28;20220;-81
2022/09/02 20:42:13;;;;;;;2.63;2.43;;;20.60;78.30;;;;;;10452818;28;20714;-80
2022/09/02 20:47:33;;;;;;;3.27;3.10;;;20.50;77.90;;;;;;10458721;28;20245;-81
2022/09/02 20:52:47;;;;;;;5.20;3.00;;;20.50;77.80;;;;;;10451313;28;20312;-81
2022/09/02 21:03:26;;;;;;;3.27;2.90;;;20.40;77.70;;;;;;10453751;28;20233;-80
2022/09/02 21:08:34;;;;;;;2.83;2.63;;;20.40;77.10;;;;;;10457244;28;20247;-80
2022/09/02 21:13:44;;;;;;;3.17;2.97;;;20.40;76.40;;;;;;10457907;28;20200;-79
2022/09/02 21:18:51;;;;;;;2.93;2.73;;;20.40;76.90;;;;;;10450251;28;20720;-80
2022/09/02 21:24:01;;;;;;;3.47;3.17;;;20.40;78.00;;;;;;10458528;28;20666;-80
2022/09/02 21:29:13;;;;;;;3.33;3.13;;;20.40;77.10;;;;;;10454568;28;20221;-80
2022/09/02 21:34:22;;;;;;;3.37;2.90;;;20.40;77.40;;;;;;10440247;28;20208;-80
2022/09/02 21:39:28;;;;;;;3.40;3.10;;;20.30;76.90;;;;;;10437693;28;20213;-80
2022/09/02 21:44:43;;;;;;;3.53;3.23;;;20.30;78.10;;;;;;10457394;28;20205;-80
2022/09/02 21:50:04;;;;;;;4.67;3.37;;;20.30;78.90;;;;;;10456885;28;20722;-80
2022/09/02 21:55:16;;;;;;;5.00;3.40;;;20.30;79.50;;;;;;10457829;28;20193;-80
2022/09/02 22:00:19;;;;;;;3.80;3.60;;;20.20;79.00;;;;;;10460748;28;20217;-80
2022/09/02 22:05:34;;;;;;;6.30;3.80;;;20.20;80.50;;;;;;10460268;28;20205;-80
2022/09/02 22:10:42;;;;;;;3.30;3.10;;;20.10;82.10;;;;;;10469228;28;20268;-81
2022/09/02 22:15:56;;;;;;;4.40;4.10;;;20.00;83.10;;;;;;10467779;28;20684;-82
2022/09/02 22:21:04;;;;;;;3.20;3.00;;;19.90;83.30;;;;;;10465163;28;20213;-79
2022/09/02 22:26:19;;;;;;;6.07;3.10;;;19.80;83.20;;;;;;10457731;28;20216;-80
2022/09/02 22:31:25;;;;;;;3.80;3.50;;;19.70;84.20;;;;;;10456485;28;20296;-80
2022/09/02 22:36:36;;;;;;;4.10;3.80;;;19.60;85.50;;;;;;10455127;28;20220;-80
2022/09/02 22:41:52;;;;;;;3.33;3.10;;;19.50;83.90;;;;;;10442675;28;20320;-80
2022/09/02 22:57:59;;;;;;;3.60;3.40;;;19.40;86.30;;;;;;10453578;28;20193;-80
2022/09/02 23:03:10;;;;;;;3.87;3.63;;;19.40;87.20;;;;;;10454445;28;20590;-80
2022/09/02 23:08:14;;;;;;;5.67;2.60;;;19.40;87.20;;;;;;10454886;28;20304;-80
2022/09/02 23:13:25;;;;;;;3.30;3.10;;;19.40;87.90;;;;;;10453895;28;20200;-80
2022/09/02 23:18:41;;;;;;;3.60;3.30;;;19.40;86.50;;;;;;10454061;28;20235;-79
2022/09/02 23:23:53;;;;;;;2.90;2.80;;;19.30;85.50;;;;;;10439809;28;20231;-80
2022/09/02 23:29:08;;;;;;;3.90;3.60;;;19.30;86.10;;;;;;10454890;28;20251;-79
2022/09/02 23:34:23;;;;;;;2.80;2.70;;;19.20;85.90;;;;;;10455678;28;20204;-79
2022/09/02 23:39:36;;;;;;;3.83;3.10;;;19.10;88.20;;;;;;10457853;28;20258;-82
2022/09/02 23:44:38;;;;;;;3.30;3.10;;;19.00;88.30;;;;;;10447296;28;20204;-81
2022/09/02 23:49:52;;;;;;;2.70;2.60;;;19.10;90.20;;;;;;10455753;28;20311;-82
2022/09/02 23:55:04;;;;;;;3.50;3.30;;;19.10;90.10;;;;;;10457128;28;20352;-82
